sensor_id;sensor_type;location;lat;lon;timestamp;temperature;humidity
46730;DHT22;32476;50.002;11.854;2023-04-25T00:00:55;5.20;99.90
46730;DHT22;32476;50.002;11.854;2023-04-25T00:03:21;5.20;99.90
46730;DHT22;32476;50.002;11.854;2023-04-25T00:05:48;5.20;99.90
46730;DHT22;32476;50.002;11.854;2023-04-25T00:08:14;5.20;99.90
46730;DHT22;32476;50.002;11.854;2023-04-25T00:10:40;5.20;99.90
46730;DHT22;32476;50.002;11.854;2023-04-25T00:13:07;5.20;99.90
46730;DHT22;32476;50.002;11.854;2023-04-25T00:15:33;5.20;99.90
46730;DHT22;32476;50.002;11.854;2023-04-25T00:18:01;5.20;99.90
46730;DHT22;32476;50.002;11.854;2023-04-25T00:20:29;5.20;99.90
46730;DHT22;32476;50.002;11.854;2023-04-25T00:22:55;5.20;99.90
46730;DHT22;32476;50.002;11.854;2023-04-25T00:25:21;5.20;99.90
46730;DHT22;32476;50.002;11.854;2023-04-25T00:27:48;5.20;99.90
46730;DHT22;32476;50.002;11.854;2023-04-25T00:30:14;5.10;99.90
46730;DHT22;32476;50.002;11.854;2023-04-25T00:32:40;5.10;99.90
46730;DHT22;32476;50.002;11.854;2023-04-25T00:35:08;5.10;99.90
46730;DHT22;32476;50.002;11.854;2023-04-25T00:37:34;5.20;99.90
46730;DHT22;32476;50.002;11.854;2023-04-25T00:40:00;5.20;99.90
46730;DHT22;32476;50.002;11.854;2023-04-25T00:42:28;5.20;99.90
46730;DHT22;32476;50.002;11.854;2023-04-25T00:44:55;5.20;99.90
46730;DHT22;32476;50.002;11.854;2023-04-25T00:47:21;5.20;99.90
46730;DHT22;32476;50.002;11.854;2023-04-25T00:49:49;5.20;99.90
46730;DHT22;32476;50.002;11.854;2023-04-25T00:52:15;5.20;99.90
46730;DHT22;32476;50.002;11.854;2023-04-25T00:54:41;5.20;99.90
46730;DHT22;32476;50.002;11.854;2023-04-25T00:57:08;5.20;99.90
46730;DHT22;32476;50.002;11.854;2023-04-25T00:59:34;5.20;99.90
46730;DHT22;32476;50.002;11.854;2023-04-25T01:02:01;5.20;99.90
46730;DHT22;32476;50.002;11.854;2023-04-25T01:04:28;5.20;99.90
46730;DHT22;32476;50.002;11.854;2023-04-25T01:06:54;5.20;99.90
46730;DHT22;32476;50.002;11.854;2023-04-25T01:09:22;5.20;99.90
46730;DHT22;32476;50.002;11.854;2023-04-25T01:11:49;5.20;99.90
46730;DHT22;32476;50.002;11.854;2023-04-25T01:14:16;5.20;99.90
46730;DHT22;32476;50.002;11.854;2023-04-25T01:16:42;5.20;99.90
46730;DHT22;32476;50.002;11.854;2023-04-25T01:19:10;5.20;99.90
46730;DHT22;32476;50.002;11.854;2023-04-25T01:21:37;5.20;99.90
46730;DHT22;32476;50.002;11.854;2023-04-25T01:24:03;5.20;99.90
46730;DHT22;32476;50.002;11.854;2023-04-25T01:26:31;5.20;99.90
46730;DHT22;32476;50.002;11.854;2023-04-25T01:28:58;5.20;99.90
46730;DHT22;32476;50.002;11.854;2023-04-25T01:31:24;5.20;99.90
46730;DHT22;32476;50.002;11.854;2023-04-25T01:33:52;5.20;99.90
46730;DHT22;32476;50.002;11.854;2023-04-25T01:36:18;5.10;99.90
46730;DHT22;32476;50.002;11.854;2023-04-25T01:38:44;5.10;99.90
46730;DHT22;32476;50.002;11.854;2023-04-25T01:41:14;5.10;99.90
46730;DHT22;32476;50.002;11.854;2023-04-25T01:43:40;5.10;99.90
46730;DHT22;32476;50.002;11.854;2023-04-25T01:46:06;5.10;99.90
46730;DHT22;32476;50.002;11.854;2023-04-25T01:48:33;5.10;99.90
46730;DHT22;32476;50.002;11.854;2023-04-25T01:50:59;5.10;99.90
46730;DHT22;32476;50.002;11.854;2023-04-25T01:53:25;5.10;99.90
46730;DHT22;32476;50.002;11.854;2023-04-25T01:55:53;5.10;99.90
46730;DHT22;32476;50.002;11.854;2023-04-25T01:58:18;5.20;99.90
46730;DHT22;32476;50.002;11.854;2023-04-25T02:00:44;5.10;99.90
46730;DHT22;32476;50.002;11.854;2023-04-25T02:03:12;5.10;99.90
46730;DHT22;32476;50.002;11.854;2023-04-25T02:05:38;5.10;99.90
46730;DHT22;32476;50.002;11.854;2023-04-25T02:08:08;5.10;99.90
46730;DHT22;32476;50.002;11.854;2023-04-25T02:10:36;5.10;99.90
46730;DHT22;32476;50.002;11.854;2023-04-25T02:13:02;5.10;99.90
46730;DHT22;32476;50.002;11.854;2023-04-25T02:15:28;5.10;99.90
46730;DHT22;32476;50.002;11.854;2023-04-25T02:17:55;5.10;99.90
46730;DHT22;32476;50.002;11.854;2023-04-25T02:20:22;5.10;99.90
46730;DHT22;32476;50.002;11.854;2023-04-25T02:22:48;5.10;99.90
46730;DHT22;32476;50.002;11.854;2023-04-25T02:25:17;5.10;99.90
46730;DHT22;32476;50.002;11.854;2023-04-25T02:27:43;5.10;99.90
46730;DHT22;32476;50.002;11.854;2023-04-25T02:30:09;5.00;99.90
46730;DHT22;32476;50.002;11.854;2023-04-25T02:32:36;5.10;99.90
46730;DHT22;32476;50.002;11.854;2023-04-25T02:35:02;5.00;99.90
46730;DHT22;32476;50.002;11.854;2023-04-25T02:37:32;5.00;99.90
46730;DHT22;32476;50.002;11.854;2023-04-25T02:40:00;5.00;99.90
46730;DHT22;32476;50.002;11.854;2023-04-25T02:42:27;5.00;99.90
46730;DHT22;32476;50.002;11.854;2023-04-25T02:44:53;5.00;99.90
46730;DHT22;32476;50.002;11.854;2023-04-25T02:47:20;5.00;99.90
46730;DHT22;32476;50.002;11.854;2023-04-25T02:49:46;5.00;99.90
46730;DHT22;32476;50.002;11.854;2023-04-25T02:52:12;5.00;99.90
46730;DHT22;32476;50.002;11.854;2023-04-25T02:54:40;5.00;99.90
46730;DHT22;32476;50.002;11.854;2023-04-25T02:57:06;5.00;99.90
46730;DHT22;32476;50.002;11.854;2023-04-25T02:59:33;5.00;99.90
46730;DHT22;32476;50.002;11.854;2023-04-25T03:02:00;5.00;99.90
46730;DHT22;32476;50.002;11.854;2023-04-25T03:04:27;5.00;99.90
46730;DHT22;32476;50.002;11.854;2023-04-25T03:06:53;5.10;99.90
46730;DHT22;32476;50.002;11.854;2023-04-25T03:09:20;5.00;99.90
46730;DHT22;32476;50.002;11.854;2023-04-25T03:11:46;5.00;99.90
46730;DHT22;32476;50.002;11.854;2023-04-25T03:14:12;5.10;99.90
46730;DHT22;32476;50.002;11.854;2023-04-25T03:16:40;5.00;99.90
46730;DHT22;32476;50.002;11.854;2023-04-25T03:19:05;5.10;99.90
46730;DHT22;32476;50.002;11.854;2023-04-25T03:21:32;5.10;99.90
46730;DHT22;32476;50.002;11.854;2023-04-25T03:24:01;5.10;99.90
46730;DHT22;32476;50.002;11.854;2023-04-25T03:26:28;5.10;99.90
46730;DHT22;32476;50.002;11.854;2023-04-25T03:28:54;5.10;99.90
46730;DHT22;32476;50.002;11.854;2023-04-25T03:31:21;5.10;99.90
46730;DHT22;32476;50.002;11.854;2023-04-25T03:33:48;5.10;99.90
46730;DHT22;32476;50.002;11.854;2023-04-25T03:36:13;5.10;99.90
46730;DHT22;32476;50.002;11.854;2023-04-25T03:38:41;5.10;99.90
46730;DHT22;32476;50.002;11.854;2023-04-25T03:41:07;5.10;99.90
46730;DHT22;32476;50.002;11.854;2023-04-25T03:43:33;5.10;99.90
46730;DHT22;32476;50.002;11.854;2023-04-25T03:46:00;5.10;99.90
46730;DHT22;32476;50.002;11.854;2023-04-25T03:48:26;5.10;99.90
46730;DHT22;32476;50.002;11.854;2023-04-25T03:50:53;5.10;99.90
46730;DHT22;32476;50.002;11.854;2023-04-25T03:53:20;5.10;99.90
46730;DHT22;32476;50.002;11.854;2023-04-25T03:55:46;5.10;99.90
46730;DHT22;32476;50.002;11.854;2023-04-25T03:58:12;5.10;99.90
46730;DHT22;32476;50.002;11.854;2023-04-25T04:00:39;5.10;99.90
46730;DHT22;32476;50.002;11.854;2023-04-25T04:03:15;5.10;99.90
46730;DHT22;32476;50.002;11.854;2023-04-25T04:05:42;5.10;99.90
46730;DHT22;32476;50.002;11.854;2023-04-25T04:08:08;5.10;99.90
46730;DHT22;32476;50.002;11.854;2023-04-25T04:10:34;5.10;99.90
46730;DHT22;32476;50.002;11.854;2023-04-25T04:13:01;5.10;99.90
46730;DHT22;32476;50.002;11.854;2023-04-25T04:15:27;5.10;99.90
46730;DHT22;32476;50.002;11.854;2023-04-25T04:17:53;5.10;99.90
46730;DHT22;32476;50.002;11.854;2023-04-25T04:20:21;5.10;99.90
46730;DHT22;32476;50.002;11.854;2023-04-25T04:22:47;5.00;99.90
46730;DHT22;32476;50.002;11.854;2023-04-25T04:25:13;5.00;99.90
46730;DHT22;32476;50.002;11.854;2023-04-25T04:27:40;5.00;99.90
46730;DHT22;32476;50.002;11.854;2023-04-25T04:30:06;5.00;99.90
46730;DHT22;32476;50.002;11.854;2023-04-25T04:32:32;5.00;99.90
46730;DHT22;32476;50.002;11.854;2023-04-25T04:35:01;5.00;99.90
46730;DHT22;32476;50.002;11.854;2023-04-25T04:37:27;5.00;99.90
46730;DHT22;32476;50.002;11.854;2023-04-25T04:39:53;5.00;99.90
46730;DHT22;32476;50.002;11.854;2023-04-25T04:42:20;5.00;99.90
46730;DHT22;32476;50.002;11.854;2023-04-25T04:44:46;5.00;99.90
46730;DHT22;32476;50.002;11.854;2023-04-25T04:47:12;4.90;99.90
46730;DHT22;32476;50.002;11.854;2023-04-25T04:49:41;4.90;99.90
46730;DHT22;32476;50.002;11.854;2023-04-25T04:52:07;4.90;99.90
46730;DHT22;32476;50.002;11.854;2023-04-25T04:54:32;4.90;99.90
46730;DHT22;32476;50.002;11.854;2023-04-25T04:57:00;4.90;99.90
46730;DHT22;32476;50.002;11.854;2023-04-25T04:59:26;4.90;99.90
46730;DHT22;32476;50.002;11.854;2023-04-25T05:01:52;4.90;99.90
46730;DHT22;32476;50.002;11.854;2023-04-25T05:04:19;4.90;99.90
46730;DHT22;32476;50.002;11.854;2023-04-25T05:06:45;4.90;99.90
46730;DHT22;32476;50.002;11.854;2023-04-25T05:09:11;4.90;99.90
46730;DHT22;32476;50.002;11.854;2023-04-25T05:11:38;4.90;99.90
46730;DHT22;32476;50.002;11.854;2023-04-25T05:14:04;4.90;99.90
46730;DHT22;32476;50.002;11.854;2023-04-25T05:16:30;4.90;99.90
46730;DHT22;32476;50.002;11.854;2023-04-25T05:18:57;4.80;99.90
46730;DHT22;32476;50.002;11.854;2023-04-25T05:21:23;4.80;99.90
46730;DHT22;32476;50.002;11.854;2023-04-25T05:23:49;4.70;99.90
46730;DHT22;32476;50.002;11.854;2023-04-25T05:26:16;4.60;99.90
46730;DHT22;32476;50.002;11.854;2023-04-25T05:28:42;4.50;99.90
46730;DHT22;32476;50.002;11.854;2023-04-25T05:31:11;4.50;99.90
46730;DHT22;32476;50.002;11.854;2023-04-25T05:33:39;4.50;99.90
46730;DHT22;32476;50.002;11.854;2023-04-25T05:36:05;4.40;99.90
46730;DHT22;32476;50.002;11.854;2023-04-25T05:38:32;4.40;99.90
46730;DHT22;32476;50.002;11.854;2023-04-25T05:40:59;4.40;99.90
46730;DHT22;32476;50.002;11.854;2023-04-25T05:43:25;4.30;99.90
46730;DHT22;32476;50.002;11.854;2023-04-25T05:45:51;4.10;99.90
46730;DHT22;32476;50.002;11.854;2023-04-25T05:48:18;4.10;99.90
46730;DHT22;32476;50.002;11.854;2023-04-25T05:50:44;4.00;99.90
46730;DHT22;32476;50.002;11.854;2023-04-25T05:53:09;3.90;99.90
46730;DHT22;32476;50.002;11.854;2023-04-25T05:55:37;3.90;99.90
46730;DHT22;32476;50.002;11.854;2023-04-25T05:58:04;4.00;99.90
46730;DHT22;32476;50.002;11.854;2023-04-25T06:00:30;4.00;99.90
46730;DHT22;32476;50.002;11.854;2023-04-25T06:02:58;3.90;99.90
46730;DHT22;32476;50.002;11.854;2023-04-25T06:05:24;4.00;99.90
46730;DHT22;32476;50.002;11.854;2023-04-25T06:07:50;4.00;99.90
46730;DHT22;32476;50.002;11.854;2023-04-25T06:10:17;3.90;99.90
46730;DHT22;32476;50.002;11.854;2023-04-25T06:12:44;3.80;99.90
46730;DHT22;32476;50.002;11.854;2023-04-25T06:15:10;3.70;99.90
46730;DHT22;32476;50.002;11.854;2023-04-25T06:17:37;3.60;99.90
46730;DHT22;32476;50.002;11.854;2023-04-25T06:20:03;3.60;99.90
46730;DHT22;32476;50.002;11.854;2023-04-25T06:22:29;3.70;99.90
46730;DHT22;32476;50.002;11.854;2023-04-25T06:24:57;3.60;99.90
46730;DHT22;32476;50.002;11.854;2023-04-25T06:27:24;3.60;99.90
46730;DHT22;32476;50.002;11.854;2023-04-25T06:29:50;3.70;99.90
46730;DHT22;32476;50.002;11.854;2023-04-25T06:32:17;3.80;99.90
46730;DHT22;32476;50.002;11.854;2023-04-25T06:34:43;3.70;99.90
46730;DHT22;32476;50.002;11.854;2023-04-25T06:37:09;3.60;99.90
46730;DHT22;32476;50.002;11.854;2023-04-25T06:39:37;3.40;99.90
46730;DHT22;32476;50.002;11.854;2023-04-25T06:42:02;3.50;99.90
46730;DHT22;32476;50.002;11.854;2023-04-25T06:44:28;3.40;99.90
46730;DHT22;32476;50.002;11.854;2023-04-25T06:46:57;3.50;99.90
46730;DHT22;32476;50.002;11.854;2023-04-25T06:49:22;3.60;99.90
46730;DHT22;32476;50.002;11.854;2023-04-25T06:51:48;3.70;99.90
46730;DHT22;32476;50.002;11.854;2023-04-25T06:54:15;3.80;99.90
46730;DHT22;32476;50.002;11.854;2023-04-25T06:56:41;4.00;99.90
46730;DHT22;32476;50.002;11.854;2023-04-25T06:59:07;4.20;99.90
46730;DHT22;32476;50.002;11.854;2023-04-25T07:01:35;4.30;99.90
46730;DHT22;32476;50.002;11.854;2023-04-25T07:04:01;4.60;99.90
46730;DHT22;32476;50.002;11.854;2023-04-25T07:06:26;4.60;99.90
46730;DHT22;32476;50.002;11.854;2023-04-25T07:08:54;4.80;99.90
46730;DHT22;32476;50.002;11.854;2023-04-25T07:11:21;4.80;99.90
46730;DHT22;32476;50.002;11.854;2023-04-25T07:13:47;5.00;99.90
46730;DHT22;32476;50.002;11.854;2023-04-25T07:16:14;5.20;99.90
46730;DHT22;32476;50.002;11.854;2023-04-25T07:18:40;5.30;99.90
46730;DHT22;32476;50.002;11.854;2023-04-25T07:21:05;5.30;99.90
46730;DHT22;32476;50.002;11.854;2023-04-25T07:23:33;5.40;99.90
46730;DHT22;32476;50.002;11.854;2023-04-25T07:25:58;5.40;99.90
46730;DHT22;32476;50.002;11.854;2023-04-25T07:28:24;5.30;99.90
46730;DHT22;32476;50.002;11.854;2023-04-25T07:30:51;5.10;99.90
46730;DHT22;32476;50.002;11.854;2023-04-25T07:33:17;5.00;99.90
46730;DHT22;32476;50.002;11.854;2023-04-25T07:35:45;4.70;99.90
46730;DHT22;32476;50.002;11.854;2023-04-25T07:38:13;4.60;99.90
46730;DHT22;32476;50.002;11.854;2023-04-25T07:40:38;4.50;99.90
46730;DHT22;32476;50.002;11.854;2023-04-25T07:43:04;4.60;99.90
46730;DHT22;32476;50.002;11.854;2023-04-25T07:45:31;4.40;99.90
46730;DHT22;32476;50.002;11.854;2023-04-25T07:47:57;4.50;99.90
46730;DHT22;32476;50.002;11.854;2023-04-25T07:50:23;4.90;99.90
46730;DHT22;32476;50.002;11.854;2023-04-25T07:52:51;5.00;99.90
46730;DHT22;32476;50.002;11.854;2023-04-25T07:55:17;5.30;99.90
46730;DHT22;32476;50.002;11.854;2023-04-25T07:57:43;5.40;99.90
46730;DHT22;32476;50.002;11.854;2023-04-25T08:00:10;5.70;99.90
46730;DHT22;32476;50.002;11.854;2023-04-25T08:02:37;5.70;99.90
46730;DHT22;32476;50.002;11.854;2023-04-25T08:05:03;5.90;99.90
46730;DHT22;32476;50.002;11.854;2023-04-25T08:07:30;6.00;99.90
46730;DHT22;32476;50.002;11.854;2023-04-25T08:09:56;5.90;99.90
46730;DHT22;32476;50.002;11.854;2023-04-25T08:12:22;5.70;99.90
46730;DHT22;32476;50.002;11.854;2023-04-25T08:14:49;5.70;99.90
46730;DHT22;32476;50.002;11.854;2023-04-25T08:17:15;5.30;99.90
46730;DHT22;32476;50.002;11.854;2023-04-25T08:19:41;5.10;99.90
46730;DHT22;32476;50.002;11.854;2023-04-25T08:22:08;5.10;99.90
46730;DHT22;32476;50.002;11.854;2023-04-25T08:24:34;4.90;99.90
46730;DHT22;32476;50.002;11.854;2023-04-25T08:27:00;4.90;99.90
46730;DHT22;32476;50.002;11.854;2023-04-25T08:29:27;4.80;99.90
46730;DHT22;32476;50.002;11.854;2023-04-25T08:31:54;4.80;99.90
46730;DHT22;32476;50.002;11.854;2023-04-25T08:34:19;4.70;99.90
46730;DHT22;32476;50.002;11.854;2023-04-25T08:36:47;4.70;99.90
46730;DHT22;32476;50.002;11.854;2023-04-25T08:39:13;5.00;99.90
46730;DHT22;32476;50.002;11.854;2023-04-25T08:41:40;4.90;99.90
46730;DHT22;32476;50.002;11.854;2023-04-25T08:44:10;4.80;99.90
46730;DHT22;32476;50.002;11.854;2023-04-25T08:46:40;5.10;99.90
46730;DHT22;32476;50.002;11.854;2023-04-25T08:49:08;5.80;99.90
46730;DHT22;32476;50.002;11.854;2023-04-25T08:51:36;6.00;99.90
46730;DHT22;32476;50.002;11.854;2023-04-25T08:54:11;6.20;99.90
46730;DHT22;32476;50.002;11.854;2023-04-25T08:56:39;6.80;99.90
46730;DHT22;32476;50.002;11.854;2023-04-25T08:59:06;7.30;99.90
46730;DHT22;32476;50.002;11.854;2023-04-25T09:01:35;7.50;99.90
46730;DHT22;32476;50.002;11.854;2023-04-25T09:04:01;7.10;99.90
46730;DHT22;32476;50.002;11.854;2023-04-25T09:06:29;6.90;99.90
46730;DHT22;32476;50.002;11.854;2023-04-25T09:09:05;7.00;99.90
46730;DHT22;32476;50.002;11.854;2023-04-25T09:11:32;7.10;99.90
46730;DHT22;32476;50.002;11.854;2023-04-25T09:16:58;7.20;99.90
46730;DHT22;32476;50.002;11.854;2023-04-25T09:21:57;6.30;99.90
46730;DHT22;32476;50.002;11.854;2023-04-25T09:24:40;6.40;99.90
46730;DHT22;32476;50.002;11.854;2023-04-25T09:27:18;6.50;99.90
46730;DHT22;32476;50.002;11.854;2023-04-25T09:29:44;6.80;99.90
46730;DHT22;32476;50.002;11.854;2023-04-25T09:32:20;7.00;99.90
46730;DHT22;32476;50.002;11.854;2023-04-25T09:37:26;7.00;99.90
46730;DHT22;32476;50.002;11.854;2023-04-25T09:39:59;7.40;99.90
46730;DHT22;32476;50.002;11.854;2023-04-25T09:42:29;7.40;99.90
46730;DHT22;32476;50.002;11.854;2023-04-25T09:44:58;7.20;99.90
46730;DHT22;32476;50.002;11.854;2023-04-25T09:47:25;6.50;99.90
46730;DHT22;32476;50.002;11.854;2023-04-25T09:49:54;6.30;99.90
46730;DHT22;32476;50.002;11.854;2023-04-25T09:52:22;6.30;99.90
46730;DHT22;32476;50.002;11.854;2023-04-25T09:54:49;6.20;99.90
46730;DHT22;32476;50.002;11.854;2023-04-25T09:57:22;6.10;99.90
46730;DHT22;32476;50.002;11.854;2023-04-25T09:59:55;6.20;99.90
46730;DHT22;32476;50.002;11.854;2023-04-25T10:02:24;6.40;99.90
46730;DHT22;32476;50.002;11.854;2023-04-25T10:04:54;6.80;99.90
46730;DHT22;32476;50.002;11.854;2023-04-25T10:07:29;7.60;99.90
46730;DHT22;32476;50.002;11.854;2023-04-25T10:09:59;7.80;99.90
46730;DHT22;32476;50.002;11.854;2023-04-25T10:12:29;7.30;99.90
46730;DHT22;32476;50.002;11.854;2023-04-25T10:14:57;7.70;99.90
46730;DHT22;32476;50.002;11.854;2023-04-25T10:17:24;8.20;99.90
46730;DHT22;32476;50.002;11.854;2023-04-25T10:19:54;8.50;99.90
46730;DHT22;32476;50.002;11.854;2023-04-25T10:22:26;8.00;99.90
46730;DHT22;32476;50.002;11.854;2023-04-25T10:24:56;8.00;99.90
46730;DHT22;32476;50.002;11.854;2023-04-25T10:27:22;8.10;99.90
46730;DHT22;32476;50.002;11.854;2023-04-25T10:30:07;8.40;99.90
46730;DHT22;32476;50.002;11.854;2023-04-25T10:32:37;9.10;99.90
46730;DHT22;32476;50.002;11.854;2023-04-25T10:35:34;9.00;99.90
46730;DHT22;32476;50.002;11.854;2023-04-25T10:38:10;8.30;99.90
46730;DHT22;32476;50.002;11.854;2023-04-25T10:40:36;8.60;99.90
46730;DHT22;32476;50.002;11.854;2023-04-25T10:45:54;8.80;99.90
46730;DHT22;32476;50.002;11.854;2023-04-25T10:48:29;8.70;99.90
46730;DHT22;32476;50.002;11.854;2023-04-25T10:51:09;8.50;99.90
46730;DHT22;32476;50.002;11.854;2023-04-25T10:53:37;8.40;99.90
46730;DHT22;32476;50.002;11.854;2023-04-25T10:56:32;8.10;99.90
46730;DHT22;32476;50.002;11.854;2023-04-25T11:01:40;7.80;99.90
46730;DHT22;32476;50.002;11.854;2023-04-25T11:04:22;8.00;99.90
46730;DHT22;32476;50.002;11.854;2023-04-25T11:07:26;8.00;99.90
46730;DHT22;32476;50.002;11.854;2023-04-25T11:09:56;7.70;99.90
46730;DHT22;32476;50.002;11.854;2023-04-25T11:12:21;7.60;99.90
46730;DHT22;32476;50.002;11.854;2023-04-25T11:14:50;7.70;99.90
46730;DHT22;32476;50.002;11.854;2023-04-25T11:17:17;7.70;99.90
46730;DHT22;32476;50.002;11.854;2023-04-25T11:19:43;8.10;99.90
46730;DHT22;32476;50.002;11.854;2023-04-25T11:22:10;8.20;99.90
46730;DHT22;32476;50.002;11.854;2023-04-25T11:24:37;8.40;99.90
46730;DHT22;32476;50.002;11.854;2023-04-25T11:27:04;9.50;99.90
46730;DHT22;32476;50.002;11.854;2023-04-25T11:29:32;9.40;99.90
46730;DHT22;32476;50.002;11.854;2023-04-25T11:32:00;8.80;99.90
46730;DHT22;32476;50.002;11.854;2023-04-25T11:34:28;8.30;99.90
46730;DHT22;32476;50.002;11.854;2023-04-25T11:36:56;8.10;99.90
46730;DHT22;32476;50.002;11.854;2023-04-25T11:39:24;7.90;99.90
46730;DHT22;32476;50.002;11.854;2023-04-25T11:41:51;8.70;99.90
46730;DHT22;32476;50.002;11.854;2023-04-25T11:44:19;9.40;99.90
46730;DHT22;32476;50.002;11.854;2023-04-25T11:46:47;9.50;99.90
46730;DHT22;32476;50.002;11.854;2023-04-25T11:49:14;8.90;99.90
46730;DHT22;32476;50.002;11.854;2023-04-25T11:51:44;8.60;99.90
46730;DHT22;32476;50.002;11.854;2023-04-25T11:54:13;8.10;99.90
46730;DHT22;32476;50.002;11.854;2023-04-25T11:56:45;8.30;99.90
46730;DHT22;32476;50.002;11.854;2023-04-25T11:59:13;8.70;99.90
46730;DHT22;32476;50.002;11.854;2023-04-25T12:01:46;9.20;99.90
46730;DHT22;32476;50.002;11.854;2023-04-25T12:04:23;9.60;99.90
46730;DHT22;32476;50.002;11.854;2023-04-25T12:06:54;10.30;99.90
46730;DHT22;32476;50.002;11.854;2023-04-25T12:09:32;9.90;99.90
46730;DHT22;32476;50.002;11.854;2023-04-25T12:11:59;8.70;99.90
46730;DHT22;32476;50.002;11.854;2023-04-25T12:14:32;8.30;99.90
46730;DHT22;32476;50.002;11.854;2023-04-25T12:17:02;8.10;99.90
46730;DHT22;32476;50.002;11.854;2023-04-25T12:19:37;8.00;99.90
46730;DHT22;32476;50.002;11.854;2023-04-25T12:22:22;8.50;99.90
46730;DHT22;32476;50.002;11.854;2023-04-25T12:24:50;8.60;99.90
46730;DHT22;32476;50.002;11.854;2023-04-25T12:27:16;8.20;99.90
46730;DHT22;32476;50.002;11.854;2023-04-25T12:29:55;7.80;99.90
46730;DHT22;32476;50.002;11.854;2023-04-25T12:32:23;7.90;99.90
46730;DHT22;32476;50.002;11.854;2023-04-25T12:34:49;7.80;99.90
46730;DHT22;32476;50.002;11.854;2023-04-25T12:37:15;7.80;99.90
46730;DHT22;32476;50.002;11.854;2023-04-25T12:39:43;7.40;99.90
46730;DHT22;32476;50.002;11.854;2023-04-25T12:42:09;7.30;99.90
46730;DHT22;32476;50.002;11.854;2023-04-25T12:44:37;7.00;99.90
46730;DHT22;32476;50.002;11.854;2023-04-25T12:47:05;7.10;99.90
46730;DHT22;32476;50.002;11.854;2023-04-25T12:49:31;7.30;99.90
46730;DHT22;32476;50.002;11.854;2023-04-25T12:51:57;7.60;99.90
46730;DHT22;32476;50.002;11.854;2023-04-25T12:54:25;7.50;99.90
46730;DHT22;32476;50.002;11.854;2023-04-25T12:56:51;7.80;99.90
46730;DHT22;32476;50.002;11.854;2023-04-25T12:59:18;8.10;99.90
46730;DHT22;32476;50.002;11.854;2023-04-25T13:01:47;7.90;99.90
46730;DHT22;32476;50.002;11.854;2023-04-25T13:04:12;8.40;99.90
46730;DHT22;32476;50.002;11.854;2023-04-25T13:06:38;8.70;99.90
46730;DHT22;32476;50.002;11.854;2023-04-25T13:09:06;8.70;99.90
46730;DHT22;32476;50.002;11.854;2023-04-25T13:11:32;9.00;99.90
46730;DHT22;32476;50.002;11.854;2023-04-25T13:13:58;9.20;99.90
46730;DHT22;32476;50.002;11.854;2023-04-25T13:16:25;9.10;99.90
46730;DHT22;32476;50.002;11.854;2023-04-25T13:18:51;8.60;99.90
46730;DHT22;32476;50.002;11.854;2023-04-25T13:21:17;8.10;99.90
46730;DHT22;32476;50.002;11.854;2023-04-25T13:23:45;7.90;99.90
46730;DHT22;32476;50.002;11.854;2023-04-25T13:26:12;8.00;99.90
46730;DHT22;32476;50.002;11.854;2023-04-25T13:28:39;7.90;99.90
46730;DHT22;32476;50.002;11.854;2023-04-25T13:31:07;7.70;99.90
46730;DHT22;32476;50.002;11.854;2023-04-25T13:33:33;7.60;99.90
46730;DHT22;32476;50.002;11.854;2023-04-25T13:36:00;7.50;99.90
46730;DHT22;32476;50.002;11.854;2023-04-25T13:38:28;7.30;99.90
46730;DHT22;32476;50.002;11.854;2023-04-25T13:40:54;7.40;99.90
46730;DHT22;32476;50.002;11.854;2023-04-25T13:43:20;7.00;99.90
46730;DHT22;32476;50.002;11.854;2023-04-25T13:45:49;6.70;99.90
46730;DHT22;32476;50.002;11.854;2023-04-25T13:48:15;7.00;99.90
46730;DHT22;32476;50.002;11.854;2023-04-25T13:50:41;7.20;99.90
46730;DHT22;32476;50.002;11.854;2023-04-25T13:53:08;7.70;99.90
46730;DHT22;32476;50.002;11.854;2023-04-25T13:55:35;7.40;99.90
46730;DHT22;32476;50.002;11.854;2023-04-25T13:58:02;8.10;99.90
46730;DHT22;32476;50.002;11.854;2023-04-25T14:00:36;7.90;99.90
46730;DHT22;32476;50.002;11.854;2023-04-25T14:03:04;7.80;99.90
46730;DHT22;32476;50.002;11.854;2023-04-25T14:05:35;8.10;99.90
46730;DHT22;32476;50.002;11.854;2023-04-25T14:08:08;8.20;99.90
46730;DHT22;32476;50.002;11.854;2023-04-25T14:10:37;7.80;99.90
46730;DHT22;32476;50.002;11.854;2023-04-25T14:13:03;7.60;99.90
46730;DHT22;32476;50.002;11.854;2023-04-25T14:15:31;7.60;99.90
46730;DHT22;32476;50.002;11.854;2023-04-25T14:17:59;7.70;99.90
46730;DHT22;32476;50.002;11.854;2023-04-25T14:20:25;7.90;99.90
46730;DHT22;32476;50.002;11.854;2023-04-25T14:22:52;7.70;99.90
46730;DHT22;32476;50.002;11.854;2023-04-25T14:25:22;7.60;99.90
46730;DHT22;32476;50.002;11.854;2023-04-25T14:27:48;7.90;99.90
46730;DHT22;32476;50.002;11.854;2023-04-25T14:30:17;8.00;99.90
46730;DHT22;32476;50.002;11.854;2023-04-25T14:32:45;7.80;99.90
46730;DHT22;32476;50.002;11.854;2023-04-25T14:35:11;7.80;99.90
46730;DHT22;32476;50.002;11.854;2023-04-25T14:37:37;7.30;99.90
46730;DHT22;32476;50.002;11.854;2023-04-25T14:40:05;7.40;99.90
46730;DHT22;32476;50.002;11.854;2023-04-25T14:42:32;7.40;99.90
46730;DHT22;32476;50.002;11.854;2023-04-25T14:44:59;7.10;99.90
46730;DHT22;32476;50.002;11.854;2023-04-25T14:47:26;6.90;99.90
46730;DHT22;32476;50.002;11.854;2023-04-25T14:49:52;6.80;99.90
46730;DHT22;32476;50.002;11.854;2023-04-25T14:52:20;6.70;99.90
46730;DHT22;32476;50.002;11.854;2023-04-25T14:54:48;7.00;99.90
46730;DHT22;32476;50.002;11.854;2023-04-25T14:57:14;7.10;99.90
46730;DHT22;32476;50.002;11.854;2023-04-25T14:59:40;6.80;99.90
46730;DHT22;32476;50.002;11.854;2023-04-25T15:02:08;6.80;99.90
46730;DHT22;32476;50.002;11.854;2023-04-25T15:04:34;6.90;99.90
46730;DHT22;32476;50.002;11.854;2023-04-25T15:07:00;7.00;99.90
46730;DHT22;32476;50.002;11.854;2023-04-25T15:09:28;6.90;99.90
46730;DHT22;32476;50.002;11.854;2023-04-25T15:11:54;7.00;99.90
46730;DHT22;32476;50.002;11.854;2023-04-25T15:14:20;7.10;99.90
46730;DHT22;32476;50.002;11.854;2023-04-25T15:16:47;7.00;99.90
46730;DHT22;32476;50.002;11.854;2023-04-25T15:19:13;7.00;99.90
46730;DHT22;32476;50.002;11.854;2023-04-25T15:21:39;7.10;99.90
46730;DHT22;32476;50.002;11.854;2023-04-25T15:24:07;6.90;99.90
46730;DHT22;32476;50.002;11.854;2023-04-25T15:26:33;6.80;99.90
46730;DHT22;32476;50.002;11.854;2023-04-25T15:28:59;6.80;99.90
46730;DHT22;32476;50.002;11.854;2023-04-25T15:31:26;7.00;99.90
46730;DHT22;32476;50.002;11.854;2023-04-25T15:33:52;7.10;99.90
46730;DHT22;32476;50.002;11.854;2023-04-25T15:36:18;7.20;99.90
46730;DHT22;32476;50.002;11.854;2023-04-25T15:38:47;7.30;99.90
46730;DHT22;32476;50.002;11.854;2023-04-25T15:41:13;7.30;99.90
46730;DHT22;32476;50.002;11.854;2023-04-25T15:43:39;6.90;99.90
46730;DHT22;32476;50.002;11.854;2023-04-25T15:46:06;6.60;99.90